createdAt,value
2023-02-07T00:00:11.736Z,104042.03
2023-02-07T00:02:45.834Z,104041.19
2023-02-07T00:05:12.781Z,104035.13
2023-02-07T00:07:40.573Z,104034.34
2023-02-07T00:10:08.089Z,104037.16
2023-02-07T00:12:35.157Z,104025.63
2023-02-07T00:15:01.773Z,104026.56
2023-02-07T00:17:31.241Z,104014.25
2023-02-07T00:19:57.675Z,104018.72
2023-02-07T00:22:24.167Z,104020.56
2023-02-07T00:24:50.814Z,104020.56
2023-02-07T00:27:17.604Z,104028.63
2023-02-07T00:29:44.937Z,104024.25
2023-02-07T00:32:11.584Z,104020.00
2023-02-07T00:34:38.191Z,104024.53
2023-02-07T00:37:05.634Z,104011.38
2023-02-07T00:39:32.203Z,104014.03
2023-02-07T00:41:58.650Z,104012.34
2023-02-07T00:44:25.119Z,104009.78
2023-02-07T00:46:51.576Z,104015.03
2023-02-07T00:49:18.352Z,104012.44
2023-02-07T00:51:44.809Z,104010.84
2023-02-07T00:54:11.290Z,104012.63
2023-02-07T00:56:38.875Z,104009.25
2023-02-07T00:59:05.589Z,104016.44
2023-02-07T01:01:32.070Z,104005.91
2023-02-07T01:03:59.103Z,104008.56
2023-02-07T01:06:27.933Z,104014.75
2023-02-07T01:08:59.724Z,104014.72
2023-02-07T01:11:27.661Z,104011.09
2023-02-07T01:13:54.448Z,104012.09
2023-02-07T01:16:28.522Z,104015.72
2023-02-07T01:18:55.404Z,104014.03
2023-02-07T01:21:25.454Z,104012.38
2023-02-07T01:23:52.366Z,104022.22
2023-02-07T01:26:18.764Z,104027.63
2023-02-07T01:28:45.176Z,104032.00
2023-02-07T01:31:12.918Z,104032.88
2023-02-07T01:33:39.498Z,104032.09
2023-02-07T01:36:12.202Z,104032.13
2023-02-07T01:38:38.674Z,104023.25
2023-02-07T01:41:06.345Z,104021.38
2023-02-07T01:43:33.524Z,104026.69
2023-02-07T01:45:59.932Z,104026.63
2023-02-07T01:48:36.651Z,104021.31
2023-02-07T01:51:07.847Z,104019.56
2023-02-07T01:53:38.017Z,104024.88
2023-02-07T01:56:09.188Z,104021.38
2023-02-07T01:58:37.811Z,104028.41
2023-02-07T02:01:09.405Z,104023.03
2023-02-07T02:03:42.649Z,104026.56
2023-02-07T02:06:11.491Z,104029.13
2023-02-07T02:08:38.003Z,104022.97
2023-02-07T02:11:19.963Z,104025.63
2023-02-07T02:14:15.715Z,104025.69
2023-02-07T02:17:05.382Z,104027.41
2023-02-07T02:19:56.793Z,104019.34
2023-02-07T02:22:41.903Z,104025.50
2023-02-07T02:25:20.193Z,104024.50
2023-02-07T02:28:08.898Z,104020.03
2023-02-07T02:30:35.399Z,104022.63
2023-02-07T02:33:19.966Z,104024.41
2023-02-07T02:36:13.587Z,104015.50
2023-02-07T02:38:53.674Z,104014.63
2023-02-07T02:41:35.446Z,104012.19
2023-02-07T02:44:11.555Z,104021.25
2023-02-07T02:46:41.564Z,104027.63
2023-02-07T02:49:13.501Z,104025.19
2023-02-07T02:51:40.072Z,104027.97
2023-02-07T02:54:27.329Z,104034.16
2023-02-07T02:57:04.633Z,104027.09
2023-02-07T02:59:48.254Z,104018.19
2023-02-07T03:02:37.669Z,104013.72
2023-02-07T03:05:18.124Z,104023.50
2023-02-07T03:07:48.228Z,104014.72
2023-02-07T03:10:36.822Z,104013.72
2023-02-07T03:13:17.946Z,104001.44
2023-02-07T03:16:06.245Z,104014.72
2023-02-07T03:18:57.268Z,104013.13
2023-02-07T03:21:30.373Z,104016.72
2023-02-07T03:24:00.476Z,104008.94
2023-02-07T03:26:28.854Z,103994.72
2023-02-07T03:28:57.557Z,103990.19
2023-02-07T03:31:27.339Z,103992.06
2023-02-07T03:34:02.207Z,103992.09
2023-02-07T03:36:33.819Z,103986.78
2023-02-07T03:39:00.415Z,103984.25
2023-02-07T03:41:46.445Z,103986.00
2023-02-07T03:44:16.006Z,103985.13
2023-02-07T03:46:42.724Z,103990.50
2023-02-07T03:49:09.218Z,103984.41
2023-02-07T03:51:36.290Z,103990.63
2023-02-07T03:54:03.446Z,103989.94
2023-02-07T03:56:29.906Z,103995.28
2023-02-07T03:58:57.337Z,103995.38
2023-02-07T04:01:23.749Z,103999.88
2023-02-07T04:03:50.149Z,103995.38
2023-02-07T04:06:16.789Z,103991.00
2023-02-07T04:08:43.231Z,103994.63
2023-02-07T04:11:10.100Z,103993.69
2023-02-07T04:13:36.719Z,103997.22
2023-02-07T04:16:05.513Z,103990.19
2023-02-07T04:18:32.270Z,104000.09
2023-02-07T04:21:07.858Z,104003.56
2023-02-07T04:23:35.604Z,103991.16
2023-02-07T04:26:02.314Z,103991.25
2023-02-07T04:28:29.191Z,103992.19
2023-02-07T04:30:56.444Z,103983.38
2023-02-07T04:33:22.952Z,103977.28
2023-02-07T04:35:59.624Z,103993.28
2023-02-07T04:38:27.538Z,103984.59
2023-02-07T04:40:59.532Z,103985.50
2023-02-07T04:43:26.332Z,103980.28
2023-02-07T04:45:52.823Z,103992.72
2023-02-07T04:48:19.298Z,103991.03
2023-02-07T04:50:45.730Z,103991.09
2023-02-07T04:53:12.529Z,103974.34
2023-02-07T04:55:39.250Z,103979.53
2023-02-07T04:58:06.490Z,103988.44
2023-02-07T05:00:33.842Z,103984.94
2023-02-07T05:03:00.989Z,103984.19
2023-02-07T05:05:27.471Z,103991.31
2023-02-07T05:07:53.923Z,103985.25
2023-02-07T05:10:20.357Z,103986.16
2023-02-07T05:12:46.733Z,103982.63
2023-02-07T05:15:13.137Z,103990.59
2023-02-07T05:17:39.554Z,103986.31
2023-02-07T05:20:07.297Z,103973.91
2023-02-07T05:22:33.803Z,103976.56
2023-02-07T05:25:00.256Z,103992.59
2023-02-07T05:27:26.744Z,103973.44
2023-02-07T05:29:53.243Z,103973.56
2023-02-07T05:32:38.285Z,103987.78
2023-02-07T05:35:05.045Z,103973.75
2023-02-07T05:37:31.432Z,103997.69
2023-02-07T05:39:57.827Z,103999.41
2023-02-07T05:42:24.224Z,104000.34
2023-02-07T05:44:50.577Z,104002.22
2023-02-07T05:47:16.949Z,103995.22
2023-02-07T05:49:43.515Z,104008.63
2023-02-07T05:52:10.116Z,104009.56
2023-02-07T05:54:36.514Z,104005.28
2023-02-07T05:57:02.991Z,104001.78
2023-02-07T05:59:29.441Z,104008.06
2023-02-07T06:01:55.828Z,104004.63
2023-02-07T06:04:22.281Z,103997.50
2023-02-07T06:06:48.784Z,104002.81
2023-02-07T06:09:15.253Z,104012.47
2023-02-07T06:11:41.694Z,104014.31
2023-02-07T06:14:08.338Z,104002.81
2023-02-07T06:16:34.852Z,104002.81
2023-02-07T06:19:01.412Z,104006.41
2023-02-07T06:21:37.609Z,104004.63
2023-02-07T06:24:11.677Z,104010.97
2023-02-07T06:26:38.074Z,104007.47
2023-02-07T06:29:04.448Z,104005.72
2023-02-07T06:31:30.963Z,103995.16
2023-02-07T06:33:57.432Z,103996.19
2023-02-07T06:36:23.901Z,103998.94
2023-02-07T06:38:53.372Z,103999.91
2023-02-07T06:41:20.354Z,104006.94
2023-02-07T06:43:46.750Z,104012.25
2023-02-07T06:46:13.400Z,104008.84
2023-02-07T06:48:40.599Z,104013.38
2023-02-07T06:51:07.019Z,104015.16
2023-02-07T06:53:33.397Z,104012.44
2023-02-07T06:55:59.793Z,104018.88
2023-02-07T06:58:26.151Z,104020.03
2023-02-07T07:00:52.553Z,104023.66
2023-02-07T07:03:19.038Z,104028.94
2023-02-07T07:05:45.589Z,104032.38
2023-02-07T07:08:14.656Z,104026.19
2023-02-07T07:10:41.504Z,104020.94
2023-02-07T07:13:11.755Z,104026.31
2023-02-07T07:15:38.603Z,104032.47
2023-02-07T07:18:05.155Z,104035.97
2023-02-07T07:20:31.648Z,104043.00
2023-02-07T07:22:58.086Z,104047.44
2023-02-07T07:25:24.489Z,104039.53
2023-02-07T07:27:52.576Z,104047.63
2023-02-07T07:30:19.228Z,104047.69
2023-02-07T07:32:45.612Z,104043.34
2023-02-07T07:35:11.969Z,104046.00
2023-02-07T07:37:38.484Z,104056.53
2023-02-07T07:40:05.340Z,104055.66
2023-02-07T07:42:31.890Z,104058.25
2023-02-07T07:45:18.007Z,104051.13
2023-02-07T07:47:44.436Z,104045.81
2023-02-07T07:50:10.873Z,104056.38
2023-02-07T07:52:37.406Z,104054.66
2023-02-07T07:55:04.469Z,104055.47
2023-02-07T07:57:30.886Z,104059.78
2023-02-07T07:59:57.524Z,104058.00
2023-02-07T08:02:24.363Z,104056.09
2023-02-07T08:04:51.263Z,104062.16
2023-02-07T08:07:17.658Z,104062.84
2023-02-07T08:09:44.109Z,104059.84
2023-02-07T08:12:11.380Z,104049.59
2023-02-07T08:14:37.837Z,104051.72
2023-02-07T08:17:04.280Z,104059.19
2023-02-07T08:19:30.664Z,104049.09
2023-02-07T08:21:57.062Z,104055.78
2023-02-07T08:24:24.592Z,104056.06
2023-02-07T08:26:51.540Z,104060.09
2023-02-07T08:29:17.962Z,104067.69
2023-02-07T08:31:44.373Z,104060.19
2023-02-07T08:34:12.003Z,104057.91
2023-02-07T08:36:39.355Z,104065.44
2023-02-07T08:39:06.725Z,104060.84
2023-02-07T08:41:33.259Z,104067.84
2023-02-07T08:43:59.695Z,104063.22
2023-02-07T08:46:26.297Z,104060.16
2023-02-07T08:48:52.707Z,104067.09
2023-02-07T08:51:19.188Z,104060.53
2023-02-07T08:53:48.274Z,104063.91
2023-02-07T08:56:14.757Z,104054.19
2023-02-07T08:58:41.262Z,104054.28
2023-02-07T09:01:11.180Z,104047.88
2023-02-07T09:03:38.200Z,104050.38
2023-02-07T09:06:05.252Z,104061.78
2023-02-07T09:08:32.127Z,104059.56
2023-02-07T09:10:58.587Z,104056.59
2023-02-07T09:13:25.041Z,104053.72
2023-02-07T09:15:56.215Z,104057.09
2023-02-07T09:18:23.499Z,104061.13
2023-02-07T09:20:50.297Z,104064.41
2023-02-07T09:23:19.693Z,104058.06
2023-02-07T09:25:49.217Z,104051.41
2023-02-07T09:28:16.417Z,104051.09
2023-02-07T09:30:47.425Z,104052.19
2023-02-07T09:33:16.357Z,104053.44
2023-02-07T09:35:46.369Z,104054.97
2023-02-07T09:38:15.664Z,104055.69
2023-02-07T09:40:43.168Z,104053.06
2023-02-07T09:43:41.951Z,104045.88
2023-02-07T09:46:20.010Z,104053.53
2023-02-07T09:48:52.397Z,104042.72
2023-02-07T09:51:22.448Z,104048.50
2023-02-07T09:54:02.942Z,104050.22
2023-02-07T09:56:31.011Z,104054.59
2023-02-07T09:59:00.939Z,104051.84
2023-02-07T10:01:32.567Z,104056.16
2023-02-07T10:04:17.297Z,104058.13
2023-02-07T10:06:46.817Z,104056.16
2023-02-07T10:09:16.111Z,104066.06
2023-02-07T10:12:00.632Z,104060.88
2023-02-07T10:14:42.351Z,104055.06
2023-02-07T10:17:46.605Z,104051.97
2023-02-07T10:20:19.171Z,104059.28
2023-02-07T10:23:12.372Z,104055.34
2023-02-07T10:25:51.710Z,104061.56
2023-02-07T10:28:33.452Z,104062.72
2023-02-07T10:31:04.764Z,104060.78
2023-02-07T10:33:35.869Z,104068.69
2023-02-07T10:36:13.583Z,104070.75
2023-02-07T10:39:14.173Z,104082.34
2023-02-07T10:41:44.099Z,104079.75
2023-02-07T10:44:19.135Z,104082.50
2023-02-07T10:46:53.958Z,104091.44
2023-02-07T10:49:32.146Z,104093.03
2023-02-07T10:52:02.602Z,104095.47
2023-02-07T10:54:29.600Z,104086.66
2023-02-07T10:57:02.146Z,104091.13
2023-02-07T10:59:46.024Z,104093.50
2023-02-07T11:02:46.848Z,104088.94
2023-02-07T11:05:16.350Z,104084.34
2023-02-07T11:08:09.251Z,104082.53
2023-02-07T11:10:39.547Z,104085.38
2023-02-07T11:13:13.982Z,104075.94
2023-02-07T11:15:55.381Z,104077.78
2023-02-07T11:18:31.189Z,104072.91
2023-02-07T11:20:57.759Z,104063.34
2023-02-07T11:23:25.285Z,104069.38
2023-02-07T11:25:55.394Z,104065.88
2023-02-07T11:28:26.535Z,104057.50
2023-02-07T11:30:58.906Z,104063.53
2023-02-07T11:33:28.492Z,104053.63
2023-02-07T11:36:06.417Z,104050.97
2023-02-07T11:38:47.649Z,104046.09
2023-02-07T11:41:19.102Z,104045.00
2023-02-07T11:44:16.096Z,104046.03
2023-02-07T11:46:48.019Z,104039.69
2023-02-07T11:49:34.610Z,104034.44
2023-02-07T11:52:02.904Z,104034.09
2023-02-07T11:54:31.294Z,104022.31
2023-02-07T11:57:07.524Z,104020.53
2023-02-07T11:59:34.676Z,104028.38
2023-02-07T12:02:15.826Z,104019.88
2023-02-07T12:04:42.873Z,104021.31
2023-02-07T12:07:18.303Z,104014.47
2023-02-07T12:10:00.304Z,104015.88
2023-02-07T12:12:33.071Z,104013.09
2023-02-07T12:15:06.505Z,104019.16
2023-02-07T12:17:39.494Z,104023.63
2023-02-07T12:20:30.174Z,104026.91
2023-02-07T12:23:34.515Z,104021.66
2023-02-07T12:26:01.827Z,104031.75
2023-02-07T12:28:39.627Z,104024.19
2023-02-07T12:31:19.379Z,104024.91
2023-02-07T12:34:13.243Z,104014.91
2023-02-07T12:36:47.425Z,104014.84
2023-02-07T12:39:23.214Z,104017.25
2023-02-07T12:42:01.774Z,104014.22
2023-02-07T12:44:38.596Z,104021.94
2023-02-07T12:47:17.180Z,104008.47
2023-02-07T12:50:17.490Z,104019.75
2023-02-07T12:52:54.888Z,104017.53
2023-02-07T12:55:33.316Z,104010.84
2023-02-07T12:58:17.343Z,104012.41
2023-02-07T13:00:55.635Z,104017.91
2023-02-07T13:03:59.786Z,104007.66
2023-02-07T13:06:53.758Z,104004.63
2023-02-07T13:09:48.912Z,104006.84
2023-02-07T13:12:24.770Z,103996.25
2023-02-07T13:15:18.372Z,103998.69
2023-02-07T13:18:21.211Z,103991.69
2023-02-07T13:20:57.882Z,103991.19
2023-02-07T13:23:28.639Z,103988.94
2023-02-07T13:26:02.746Z,103977.53
2023-02-07T13:28:43.306Z,103981.16
2023-02-07T13:31:15.818Z,103983.72
2023-02-07T13:33:43.545Z,103983.56
2023-02-07T13:36:37.324Z,103983.72
2023-02-07T13:39:19.978Z,103976.75
2023-02-07T13:42:15.586Z,103975.13
2023-02-07T13:45:01.503Z,103973.31
2023-02-07T13:47:57.233Z,103982.28
2023-02-07T13:50:46.566Z,103968.28
2023-02-07T13:53:45.024Z,103975.91
2023-02-07T13:56:33.847Z,103972.97
2023-02-07T13:59:20.203Z,103967.94
2023-02-07T14:01:50.932Z,103970.78
2023-02-07T14:04:19.517Z,103963.03
2023-02-07T14:06:57.530Z,103969.50
2023-02-07T14:09:32.516Z,103960.44
2023-02-07T14:12:04.389Z,103967.81
2023-02-07T14:14:38.781Z,103970.53
2023-02-07T14:17:13.792Z,103965.09
2023-02-07T14:19:40.368Z,103971.63
2023-02-07T14:22:25.306Z,103968.38
2023-02-07T14:25:03.838Z,103974.13
2023-02-07T14:27:36.945Z,103974.66
2023-02-07T14:30:12.445Z,103972.75
2023-02-07T14:32:40.916Z,103977.88
2023-02-07T14:35:16.609Z,103966.28
2023-02-07T14:38:02.180Z,103968.47
2023-02-07T14:40:32.828Z,103970.59
2023-02-07T14:43:03.469Z,103964.75
2023-02-07T14:45:33.019Z,103965.16
2023-02-07T14:47:59.734Z,103970.56
2023-02-07T14:50:30.476Z,103961.69
2023-02-07T14:53:04.503Z,103965.16
2023-02-07T14:55:42.562Z,103970.41
2023-02-07T14:58:25.608Z,103957.91
2023-02-07T15:00:58.822Z,103963.59
2023-02-07T15:03:30.297Z,103961.84
2023-02-07T15:06:04.864Z,103947.47
2023-02-07T15:08:34.763Z,103946.63
2023-02-07T15:11:05.092Z,103946.28
2023-02-07T15:13:47.708Z,103946.97
2023-02-07T15:16:21.916Z,103941.63
2023-02-07T15:18:53.218Z,103941.72
2023-02-07T15:21:41.802Z,103944.28
2023-02-07T15:24:22.344Z,103949.72
2023-02-07T15:26:51.296Z,103952.56
2023-02-07T15:29:30.585Z,103943.84
2023-02-07T15:31:57.128Z,103942.84
2023-02-07T15:34:32.301Z,103940.06
2023-02-07T15:37:19.253Z,103940.06
2023-02-07T15:39:46.705Z,103949.03
2023-02-07T15:42:18.161Z,103945.41
2023-02-07T15:44:50.766Z,103958.88
2023-02-07T15:47:29.194Z,103958.88
2023-02-07T15:50:00.230Z,103961.53
2023-02-07T15:52:43.971Z,103953.53
2023-02-07T15:55:18.407Z,103947.56
2023-02-07T15:57:45.320Z,103959.03
2023-02-07T16:00:29.058Z,103957.16
2023-02-07T16:02:59.047Z,103960.75
2023-02-07T16:05:37.938Z,103958.97
2023-02-07T16:08:07.107Z,103958.06
2023-02-07T16:10:39.381Z,103962.75
2023-02-07T16:13:21.415Z,103962.81
2023-02-07T16:16:06.663Z,103967.28
2023-02-07T16:18:34.760Z,103966.44
2023-02-07T16:21:01.226Z,103964.72
2023-02-07T16:23:28.121Z,103966.53
2023-02-07T16:25:58.322Z,103961.25
2023-02-07T16:28:24.956Z,103963.91
2023-02-07T16:30:51.609Z,103963.22
2023-02-07T16:33:18.067Z,103967.84
2023-02-07T16:35:44.514Z,103969.63
2023-02-07T16:38:10.890Z,103975.53
2023-02-07T16:40:37.826Z,103973.19
2023-02-07T16:43:06.216Z,103969.28
2023-02-07T16:45:32.752Z,103974.09
2023-02-07T16:47:59.881Z,103977.97
2023-02-07T16:50:28.453Z,103983.66
2023-02-07T16:52:59.415Z,103974.94
2023-02-07T16:55:28.314Z,103982.31
2023-02-07T16:57:56.417Z,103977.16
2023-02-07T17:00:25.315Z,103979.91
2023-02-07T17:02:53.220Z,103976.47
2023-02-07T17:05:21.938Z,103981.00
2023-02-07T17:07:49.728Z,103978.44
2023-02-07T17:10:27.564Z,103976.88
2023-02-07T17:12:54.130Z,103969.88
2023-02-07T17:15:21.234Z,103975.34
2023-02-07T17:17:47.925Z,103969.34
2023-02-07T17:20:31.367Z,103979.22
2023-02-07T17:22:57.766Z,103975.94
2023-02-07T17:25:27.488Z,103980.47
2023-02-07T17:27:54.056Z,103976.19
2023-02-07T17:30:25.973Z,103985.19
2023-02-07T17:32:52.427Z,103982.69
2023-02-07T17:35:20.594Z,103979.31
2023-02-07T17:37:50.528Z,103977.59
2023-02-07T17:40:20.344Z,103983.00
2023-02-07T17:42:46.764Z,103992.03
2023-02-07T17:45:13.257Z,103988.66
2023-02-07T17:47:39.665Z,103987.03
2023-02-07T17:50:07.590Z,103988.13
2023-02-07T17:52:34.896Z,103994.56
2023-02-07T17:55:01.969Z,103983.88
2023-02-07T17:57:28.343Z,103997.28
2023-02-07T17:59:54.775Z,103995.66
2023-02-07T18:02:21.243Z,103993.03
2023-02-07T18:04:47.711Z,103997.75
2023-02-07T18:07:14.583Z,103996.16
2023-02-07T18:09:41.016Z,103990.97
2023-02-07T18:12:07.520Z,103996.31
2023-02-07T18:14:33.926Z,104006.97
2023-02-07T18:17:00.394Z,104000.78
2023-02-07T18:19:26.844Z,103988.31
2023-02-07T18:21:53.269Z,103988.41
2023-02-07T18:24:19.636Z,103977.88
2023-02-07T18:26:46.232Z,103980.63
2023-02-07T18:29:12.599Z,103971.97
2023-02-07T18:31:39.421Z,103979.91
2023-02-07T18:34:05.850Z,103979.06
2023-02-07T18:36:39.958Z,103982.63
2023-02-07T18:39:07.343Z,103985.31
2023-02-07T18:41:34.284Z,103985.41
2023-02-07T18:44:02.652Z,103979.19
2023-02-07T18:46:29.809Z,103984.69
2023-02-07T18:48:56.743Z,103980.38
2023-02-07T18:51:23.918Z,103983.09
2023-02-07T18:53:51.341Z,103979.66
2023-02-07T18:56:21.341Z,103976.19
2023-02-07T18:58:48.296Z,103980.81
2023-02-07T19:01:18.993Z,103981.66
2023-02-07T19:03:54.257Z,103980.97
2023-02-07T19:06:22.567Z,103979.22
2023-02-07T19:08:49.618Z,103973.03
2023-02-07T19:11:16.653Z,103981.97
2023-02-07T19:13:43.703Z,103981.16
2023-02-07T19:16:14.383Z,103988.25
2023-02-07T19:18:41.038Z,103989.16
2023-02-07T19:21:16.193Z,103990.19
2023-02-07T19:23:42.715Z,103992.16
2023-02-07T19:26:10.207Z,103995.03
2023-02-07T19:28:37.795Z,103982.00
2023-02-07T19:31:06.116Z,103992.78
2023-02-07T19:33:32.864Z,103997.41
2023-02-07T19:36:07.676Z,103994.75
2023-02-07T19:38:34.622Z,103993.94
2023-02-07T19:41:01.971Z,103993.16
2023-02-07T19:43:28.455Z,103988.94
2023-02-07T19:45:54.887Z,103994.38
2023-02-07T19:48:22.319Z,103997.19
2023-02-07T19:50:56.761Z,103989.41
2023-02-07T19:53:23.190Z,104000.16
2023-02-07T19:55:49.569Z,104002.13
2023-02-07T19:58:15.998Z,104004.97
2023-02-07T20:00:43.138Z,104001.50
2023-02-07T20:03:09.605Z,104002.56
2023-02-07T20:05:36.038Z,104005.53
2023-02-07T20:08:02.470Z,104009.09
2023-02-07T20:10:28.961Z,104004.78
2023-02-07T20:12:55.351Z,104005.78
2023-02-07T20:15:21.816Z,103997.94
2023-02-07T20:17:48.535Z,103995.41
2023-02-07T20:20:15.022Z,103994.63
2023-02-07T20:22:41.564Z,103994.63
2023-02-07T20:25:08.351Z,103994.63
2023-02-07T20:27:34.715Z,103990.28
2023-02-07T20:30:01.593Z,103978.00
2023-02-07T20:32:28.039Z,103985.97
2023-02-07T20:34:54.432Z,103990.44
2023-02-07T20:37:20.867Z,103992.22
2023-02-07T20:39:47.573Z,103986.09
2023-02-07T20:42:13.944Z,103986.19
2023-02-07T20:44:40.304Z,103994.22
2023-02-07T20:47:06.782Z,103993.28
2023-02-07T20:49:33.229Z,103997.81
2023-02-07T20:52:00.216Z,103990.06
2023-02-07T20:54:28.288Z,103997.22
2023-02-07T20:56:55.769Z,103992.06
2023-02-07T20:59:30.650Z,103988.66
2023-02-07T21:01:57.304Z,103983.47
2023-02-07T21:04:24.843Z,103987.97
2023-02-07T21:06:52.604Z,103991.56
2023-02-07T21:09:19.580Z,103988.13
2023-02-07T21:11:52.208Z,103985.50
2023-02-07T21:14:25.624Z,103985.59
2023-02-07T21:16:54.066Z,103992.75
2023-02-07T21:19:23.984Z,103981.47
2023-02-07T21:21:51.277Z,103984.19
2023-02-07T21:24:19.236Z,103982.59
2023-02-07T21:26:49.686Z,103979.94
2023-02-07T21:29:17.079Z,103971.16
2023-02-07T21:31:43.983Z,103973.75
2023-02-07T21:34:10.815Z,103972.09
2023-02-07T21:36:40.140Z,103975.72
2023-02-07T21:39:10.578Z,103976.66
2023-02-07T21:41:39.080Z,103970.56
2023-02-07T21:44:05.807Z,103968.03
2023-02-07T21:46:34.680Z,103965.41
2023-02-07T21:49:20.883Z,103967.03
2023-02-07T21:51:49.121Z,103965.97
2023-02-07T21:54:16.475Z,103967.03
2023-02-07T21:56:44.174Z,103960.91
2023-02-07T21:59:16.096Z,103967.09
2023-02-07T22:01:44.033Z,103965.56
2023-02-07T22:04:10.866Z,103954.19
2023-02-07T22:06:38.772Z,103957.84
2023-02-07T22:09:05.369Z,103964.22
2023-02-07T22:11:35.070Z,103958.97
2023-02-07T22:14:02.660Z,103956.56
2023-02-07T22:16:30.601Z,103963.88
2023-02-07T22:18:58.681Z,103967.50
2023-02-07T22:21:30.710Z,103955.16
2023-02-07T22:23:58.369Z,103956.88
2023-02-07T22:26:25.927Z,103955.16
2023-02-07T22:28:53.276Z,103956.09
2023-02-07T22:31:22.881Z,103954.41
2023-02-07T22:33:51.471Z,103961.47
2023-02-07T22:36:21.272Z,103949.94
2023-02-07T22:38:48.937Z,103950.78
2023-02-07T22:41:16.636Z,103944.53
2023-02-07T22:43:43.439Z,103942.72
2023-02-07T22:46:22.286Z,103943.53
2023-02-07T22:48:48.978Z,103933.03
2023-02-07T22:51:18.816Z,103941.06
2023-02-07T22:53:45.586Z,103938.47
2023-02-07T22:56:13.080Z,103940.38
2023-02-07T22:58:40.606Z,103939.59
2023-02-07T23:01:14.234Z,103937.13
2023-02-07T23:03:40.653Z,103939.91
2023-02-07T23:06:07.186Z,103942.56
2023-02-07T23:08:33.611Z,103943.50
2023-02-07T23:11:00.004Z,103943.63
2023-02-07T23:13:26.457Z,103940.22
2023-02-07T23:15:53.861Z,103942.88
2023-02-07T23:18:20.351Z,103938.41
2023-02-07T23:20:46.855Z,103944.59
2023-02-07T23:23:13.337Z,103951.84
2023-02-07T23:25:44.807Z,103949.25
2023-02-07T23:28:13.011Z,103947.59
2023-02-07T23:30:40.709Z,103948.50
2023-02-07T23:33:09.654Z,103953.88
2023-02-07T23:35:36.553Z,103953.91
2023-02-07T23:38:03.828Z,103938.13
2023-02-07T23:40:30.212Z,103946.97
2023-02-07T23:42:56.650Z,103949.81
2023-02-07T23:45:23.089Z,103949.84
2023-02-07T23:47:49.518Z,103948.97
2023-02-07T23:50:16.054Z,103948.19
2023-02-07T23:52:42.470Z,103950.00
2023-02-07T23:55:08.928Z,103951.75
2023-02-07T23:57:35.452Z,103945.59
